createdAt,value
2022-12-07T00:00:22.305Z,966.1300
2022-12-07T00:01:24.550Z,966.1100
2022-12-07T00:02:26.897Z,966.1500
2022-12-07T00:03:29.218Z,966.1500
2022-12-07T00:04:31.326Z,966.1500
2022-12-07T00:05:33.664Z,966.1500
2022-12-07T00:06:35.891Z,966.1500
2022-12-07T00:07:36.090Z,966.1500
2022-12-07T00:08:38.323Z,966.1500
2022-12-07T00:09:40.608Z,966.1500
2022-12-07T00:10:43.087Z,966.1500
2022-12-07T00:11:45.240Z,966.1700
2022-12-07T00:12:47.541Z,966.1300
2022-12-07T00:13:49.828Z,966.1300
2022-12-07T00:14:50.008Z,966.1100
2022-12-07T00:15:54.509Z,966.1100
2022-12-07T00:16:13.924Z,966.1100
2022-12-07T00:17:16.080Z,966.1100
2022-12-07T00:18:18.331Z,966.1100
2022-12-07T00:19:20.624Z,966.1100
2022-12-07T00:20:20.709Z,966.1300
2022-12-07T00:21:22.993Z,966.1100
2022-12-07T00:22:25.209Z,966.1100
2022-12-07T00:23:27.482Z,966.1300
2022-12-07T00:24:29.738Z,966.1300
2022-12-07T00:25:32.046Z,966.1300
2022-12-07T00:26:34.521Z,966.1300
2022-12-07T00:27:36.631Z,966.1100
2022-12-07T00:28:36.788Z,966.1300
2022-12-07T00:29:39.092Z,966.1300
2022-12-07T00:30:41.363Z,966.1300
2022-12-07T00:31:44.024Z,966.1100
2022-12-07T00:32:45.975Z,966.0900
2022-12-07T00:33:16.190Z,966.0900
2022-12-07T00:34:18.282Z,966.0900
2022-12-07T00:35:20.548Z,966.0900
2022-12-07T00:36:26.643Z,966.0900
2022-12-07T00:37:25.258Z,966.0900
2022-12-07T00:38:27.440Z,966.0900
2022-12-07T00:39:29.754Z,966.0700
2022-12-07T00:40:32.066Z,966.1100
2022-12-07T00:41:32.233Z,966.1100
2022-12-07T00:42:34.562Z,966.1500
2022-12-07T00:43:36.830Z,966.1300
2022-12-07T00:44:39.116Z,966.1300
2022-12-07T00:45:41.516Z,966.1300
2022-12-07T00:46:43.697Z,966.1300
2022-12-07T00:47:45.981Z,966.1300
2022-12-07T00:48:46.092Z,966.1100
2022-12-07T00:49:48.372Z,966.0900
2022-12-07T00:50:50.687Z,966.0700
2022-12-07T00:51:52.964Z,966.0500
2022-12-07T00:52:55.407Z,966.0700
2022-12-07T00:53:57.515Z,966.0500
2022-12-07T00:54:59.743Z,966.0500
2022-12-07T00:55:59.858Z,966.0900
2022-12-07T00:57:43.020Z,966.0700
2022-12-07T00:58:43.264Z,966.0700
2022-12-07T00:59:45.332Z,966.0700
2022-12-07T01:00:47.605Z,966.0500
2022-12-07T01:01:50.006Z,966.0700
2022-12-07T01:02:52.156Z,966.0500
2022-12-07T01:03:54.407Z,966.0700
2022-12-07T01:04:56.693Z,966.0700
2022-12-07T01:05:59.020Z,966.0100
2022-12-07T01:06:59.168Z,966.0700
2022-12-07T01:08:01.617Z,966.0500
2022-12-07T01:09:03.848Z,966.0700
2022-12-07T01:10:06.134Z,966.0300
2022-12-07T01:11:08.491Z,966.0500
2022-12-07T01:12:08.684Z,966.0700
2022-12-07T01:13:11.023Z,966.0900
2022-12-07T01:14:13.360Z,966.1100
2022-12-07T01:15:15.677Z,966.0900
2022-12-07T01:16:18.133Z,966.1100
2022-12-07T01:17:18.213Z,966.0700
2022-12-07T01:18:20.547Z,966.0700
2022-12-07T01:19:22.945Z,966.0500
2022-12-07T01:20:25.234Z,966.0500
2022-12-07T01:21:27.611Z,966.0700
2022-12-07T01:22:27.783Z,966.0700
2022-12-07T01:23:30.134Z,966.0700
2022-12-07T01:24:32.513Z,966.0500
2022-12-07T01:25:34.834Z,966.0700
2022-12-07T01:26:37.175Z,966.0300
2022-12-07T01:27:37.370Z,966.0300
2022-12-07T01:28:39.701Z,966.0300
2022-12-07T01:29:42.076Z,966.0300
2022-12-07T01:30:44.493Z,966.0100
2022-12-07T01:31:46.646Z,966.0300
2022-12-07T01:32:48.908Z,966.0300
2022-12-07T01:33:49.052Z,966.0100
2022-12-07T01:34:49.218Z,966.0300
2022-12-07T01:35:51.490Z,966.0300
2022-12-07T01:36:53.709Z,966.0700
2022-12-07T01:37:55.951Z,966.0700
2022-12-07T01:38:58.217Z,966.0700
2022-12-07T01:40:01.065Z,966.0700
2022-12-07T01:41:02.768Z,966.0700
2022-12-07T01:42:02.908Z,966.0900
2022-12-07T01:43:05.193Z,966.0900
2022-12-07T01:44:07.483Z,966.0700
2022-12-07T01:45:09.784Z,966.0900
2022-12-07T01:46:12.087Z,966.0700
2022-12-07T01:47:14.294Z,966.0500
2022-12-07T01:48:16.551Z,966.0300
2022-12-07T01:49:16.643Z,966.0500
2022-12-07T01:50:19.147Z,966.0500
2022-12-07T01:51:21.160Z,966.0300
2022-12-07T01:52:23.497Z,966.0300
2022-12-07T01:53:25.769Z,966.0100
2022-12-07T01:54:27.995Z,966.0300
2022-12-07T01:55:30.386Z,966.0100
2022-12-07T01:56:32.495Z,966.0300
2022-12-07T01:57:34.785Z,966.0100
2022-12-07T01:58:34.927Z,965.9900
2022-12-07T01:59:37.246Z,965.9900
2022-12-07T02:00:39.751Z,965.9700
2022-12-07T02:01:41.928Z,965.9700
2022-12-07T02:02:44.218Z,965.9700
2022-12-07T02:03:46.522Z,965.9700
2022-12-07T02:04:46.714Z,965.9700
2022-12-07T02:05:49.073Z,965.9700
2022-12-07T02:06:51.396Z,965.9500
2022-12-07T02:07:53.786Z,965.9300
2022-12-07T02:08:56.050Z,965.9300
2022-12-07T02:09:56.270Z,965.9100
2022-12-07T02:10:58.675Z,965.9100
2022-12-07T02:12:00.978Z,965.8900
2022-12-07T02:13:03.190Z,965.9100
2022-12-07T02:14:05.490Z,965.9100
2022-12-07T02:15:05.674Z,965.9100
2022-12-07T02:16:08.114Z,965.9100
2022-12-07T02:17:10.269Z,965.9300
2022-12-07T02:18:12.542Z,965.9100
2022-12-07T02:19:14.846Z,965.9300
2022-12-07T02:21:45.283Z,965.9700
2022-12-07T02:22:47.459Z,965.9700
2022-12-07T02:23:49.731Z,965.9500
2022-12-07T02:24:51.957Z,965.9500
2022-12-07T02:25:54.231Z,965.9500
2022-12-07T02:26:56.582Z,965.9500
2022-12-07T02:27:58.818Z,965.9500
2022-12-07T02:28:58.960Z,965.9300
2022-12-07T02:30:01.780Z,965.9500
2022-12-07T02:31:03.604Z,965.9100
2022-12-07T02:32:05.804Z,965.9300
2022-12-07T02:33:08.067Z,965.9300
2022-12-07T02:34:10.354Z,965.9300
2022-12-07T02:35:12.635Z,965.9300
2022-12-07T02:36:14.862Z,965.8900
2022-12-07T02:37:17.188Z,965.9100
2022-12-07T02:38:17.295Z,965.8800
2022-12-07T02:39:19.622Z,965.8600
2022-12-07T02:40:21.902Z,965.8800
2022-12-07T02:41:24.163Z,965.8800
2022-12-07T02:42:26.420Z,965.8900
2022-12-07T02:43:28.692Z,965.8900
2022-12-07T02:44:30.954Z,965.8900
2022-12-07T02:45:31.044Z,965.9100
2022-12-07T02:46:33.331Z,965.8900
2022-12-07T02:47:35.487Z,965.8900
2022-12-07T02:48:37.681Z,965.9500
2022-12-07T02:49:39.911Z,965.9100
2022-12-07T02:50:42.186Z,965.8900
2022-12-07T02:51:44.461Z,965.8900
2022-12-07T02:52:46.974Z,965.8900
2022-12-07T02:53:49.080Z,965.9100
2022-12-07T02:54:49.272Z,965.8900
2022-12-07T02:55:51.578Z,965.8900
2022-12-07T02:56:53.902Z,965.9100
2022-12-07T02:57:56.382Z,965.8900
2022-12-07T02:58:58.509Z,965.8800
2022-12-07T03:00:01.306Z,965.8800
2022-12-07T03:01:00.930Z,965.8400
2022-12-07T03:02:03.306Z,965.8400
2022-12-07T03:03:05.720Z,965.8400
2022-12-07T03:04:07.782Z,965.8200
2022-12-07T03:05:10.046Z,965.8000
2022-12-07T03:06:12.346Z,965.8000
2022-12-07T03:07:14.642Z,965.8000
2022-12-07T03:08:14.991Z,965.7400
2022-12-07T03:09:16.996Z,965.7800
2022-12-07T03:10:19.318Z,965.7600
2022-12-07T03:11:22.199Z,965.7400
2022-12-07T03:12:23.896Z,965.7200
2022-12-07T03:13:26.280Z,965.7200
2022-12-07T03:14:28.443Z,965.7600
2022-12-07T03:15:30.779Z,965.7200
2022-12-07T03:16:30.882Z,965.7200
2022-12-07T03:17:33.150Z,965.7000
2022-12-07T03:18:35.622Z,965.7200
2022-12-07T03:19:37.701Z,965.7000
2022-12-07T03:20:43.204Z,965.7000
2022-12-07T03:21:45.438Z,965.6800
2022-12-07T03:22:47.761Z,965.7200
2022-12-07T03:23:50.102Z,965.7200
2022-12-07T03:24:52.377Z,965.7400
2022-12-07T03:26:00.192Z,965.7200
2022-12-07T03:26:56.996Z,965.7200
2022-12-07T03:28:57.449Z,965.6800
2022-12-07T03:29:59.857Z,965.7200
2022-12-07T03:31:01.841Z,965.7200
2022-12-07T03:32:04.023Z,965.7200
2022-12-07T03:33:06.279Z,965.7000
2022-12-07T03:34:08.546Z,965.7000
2022-12-07T03:35:10.752Z,965.7000
2022-12-07T03:36:12.864Z,965.7400
2022-12-07T03:37:15.028Z,965.7400
2022-12-07T03:38:17.185Z,965.7400
2022-12-07T03:39:19.451Z,965.7600
2022-12-07T03:40:19.297Z,965.7600
2022-12-07T03:41:21.481Z,965.7400
2022-12-07T03:42:23.594Z,965.7600
2022-12-07T03:43:25.748Z,965.7400
2022-12-07T03:44:27.927Z,965.7600
2022-12-07T03:45:30.217Z,965.7600
2022-12-07T03:46:32.604Z,965.7400
2022-12-07T03:47:34.795Z,965.7400
2022-12-07T03:48:37.029Z,965.7600
2022-12-07T03:49:39.462Z,965.7600
2022-12-07T03:50:39.520Z,965.7800
2022-12-07T03:51:41.812Z,965.7600
2022-12-07T03:52:44.080Z,965.7800
2022-12-07T03:53:46.405Z,965.7600
2022-12-07T03:54:48.741Z,965.7600
2022-12-07T03:55:51.029Z,965.7600
2022-12-07T03:56:53.364Z,965.7400
2022-12-07T03:57:53.520Z,965.7800
2022-12-07T03:58:55.805Z,965.7600
2022-12-07T03:59:58.266Z,965.8000
2022-12-07T04:01:00.397Z,965.7600
2022-12-07T04:02:02.819Z,965.7800
2022-12-07T04:03:05.066Z,965.7400
2022-12-07T04:04:05.147Z,965.7400
2022-12-07T04:05:07.436Z,965.7400
2022-12-07T04:06:09.569Z,965.7600
2022-12-07T04:07:11.670Z,965.7600
2022-12-07T04:08:13.961Z,965.7000
2022-12-07T04:09:16.021Z,965.6800
2022-12-07T04:10:18.210Z,965.7200
2022-12-07T04:11:20.384Z,965.7000
2022-12-07T04:12:22.557Z,965.7000
2022-12-07T04:13:24.717Z,965.6800
2022-12-07T04:14:26.979Z,965.7000
2022-12-07T04:15:29.220Z,965.6600
2022-12-07T04:16:31.563Z,965.6400
2022-12-07T04:17:33.735Z,965.7000
2022-12-07T04:18:33.875Z,965.6800
2022-12-07T04:19:36.148Z,965.6800
2022-12-07T04:20:38.487Z,965.7000
2022-12-07T04:21:40.690Z,965.6800
2022-12-07T04:22:42.967Z,965.6800
2022-12-07T04:23:45.240Z,965.6600
2022-12-07T04:24:47.530Z,965.6600
2022-12-07T04:25:49.927Z,965.6400
2022-12-07T04:26:49.962Z,965.6200
2022-12-07T04:27:52.307Z,965.6400
2022-12-07T04:28:52.473Z,965.6400
2022-12-07T04:29:54.764Z,965.6600
2022-12-07T04:30:57.281Z,965.6400
2022-12-07T04:31:59.413Z,965.6400
2022-12-07T04:32:59.574Z,965.6400
2022-12-07T04:34:01.894Z,965.6400
2022-12-07T04:35:04.228Z,965.6400
2022-12-07T04:36:06.722Z,965.6400
2022-12-07T04:37:08.808Z,965.6200
2022-12-07T04:38:08.941Z,965.6200
2022-12-07T04:39:09.102Z,965.6200
2022-12-07T04:40:11.407Z,965.6200
2022-12-07T04:41:14.000Z,965.6400
2022-12-07T04:42:16.033Z,965.6400
2022-12-07T04:43:18.398Z,965.6600
2022-12-07T04:44:18.532Z,965.6600
2022-12-07T04:45:20.849Z,965.6600
2022-12-07T04:46:23.436Z,965.6800
2022-12-07T04:47:25.494Z,965.6800
2022-12-07T04:48:27.804Z,965.6800
2022-12-07T04:49:30.102Z,965.6800
2022-12-07T04:50:30.275Z,965.6600
2022-12-07T04:51:32.648Z,965.6600
2022-12-07T04:52:34.914Z,965.6600
2022-12-07T04:53:37.184Z,965.6600
2022-12-07T04:54:39.462Z,965.6800
2022-12-07T04:55:41.758Z,965.7200
2022-12-07T04:56:44.086Z,965.7400
2022-12-07T04:57:44.153Z,965.7200
2022-12-07T04:58:46.393Z,965.7400
2022-12-07T04:59:48.614Z,965.7200
2022-12-07T05:00:51.029Z,965.7200
2022-12-07T05:01:53.491Z,965.7200
2022-12-07T05:02:55.578Z,965.7400
2022-12-07T05:03:57.917Z,965.7400
2022-12-07T05:05:00.218Z,965.7200
2022-12-07T05:06:02.522Z,965.7600
2022-12-07T05:07:04.840Z,965.7400
2022-12-07T05:08:07.241Z,965.7200
2022-12-07T05:09:09.465Z,965.7400
2022-12-07T05:10:11.756Z,965.7400
2022-12-07T05:11:14.054Z,965.7600
2022-12-07T05:12:16.493Z,965.7400
2022-12-07T05:13:18.625Z,965.7200
2022-12-07T05:14:20.875Z,965.7200
2022-12-07T05:15:23.130Z,965.7000
2022-12-07T05:16:25.475Z,965.7000
2022-12-07T05:17:27.870Z,965.6800
2022-12-07T05:18:27.832Z,965.6800
2022-12-07T05:19:30.130Z,965.6600
2022-12-07T05:20:33.806Z,965.6400
2022-12-07T05:21:34.717Z,965.6600
2022-12-07T05:22:37.069Z,965.6600
2022-12-07T05:23:39.396Z,965.6600
2022-12-07T05:24:41.699Z,965.6400
2022-12-07T05:25:41.885Z,965.6800
2022-12-07T05:26:44.166Z,965.6600
2022-12-07T05:27:46.518Z,965.6600
2022-12-07T05:28:48.798Z,965.6600
2022-12-07T05:29:51.149Z,965.6600
2022-12-07T05:30:54.510Z,965.6400
2022-12-07T05:31:53.835Z,965.6600
2022-12-07T05:32:56.042Z,965.6400
2022-12-07T05:33:58.354Z,965.6600
2022-12-07T05:35:00.683Z,965.6400
2022-12-07T05:36:03.024Z,965.6400
2022-12-07T05:37:03.195Z,965.6800
2022-12-07T05:38:05.655Z,965.6800
2022-12-07T05:39:07.823Z,965.6800
2022-12-07T05:40:10.099Z,965.6600
2022-12-07T05:41:12.409Z,965.6600
2022-12-07T05:42:14.775Z,965.6600
2022-12-07T05:43:14.998Z,965.6600
2022-12-07T05:44:17.224Z,965.6600
2022-12-07T05:45:19.539Z,965.6800
2022-12-07T05:46:21.876Z,965.6600
2022-12-07T05:47:24.115Z,965.6800
2022-12-07T05:48:24.299Z,965.7000
2022-12-07T05:49:26.562Z,965.7000
2022-12-07T05:50:28.882Z,965.7000
2022-12-07T05:51:31.193Z,965.7200
2022-12-07T05:52:33.504Z,965.7400
2022-12-07T05:53:35.921Z,965.7400
2022-12-07T05:54:38.106Z,965.7600
2022-12-07T05:55:38.255Z,965.7600
2022-12-07T05:56:40.578Z,965.7600
2022-12-07T05:57:42.855Z,965.7000
2022-12-07T05:58:45.453Z,965.7200
2022-12-07T05:59:47.479Z,965.7000
2022-12-07T06:00:51.454Z,965.7200
2022-12-07T06:01:50.030Z,965.7000
2022-12-07T06:02:52.473Z,965.7400
2022-12-07T06:03:54.763Z,965.7200
2022-12-07T06:04:56.910Z,965.7400
2022-12-07T06:05:59.275Z,965.7400
2022-12-07T06:07:01.593Z,965.7600
2022-12-07T06:08:05.809Z,965.7600
2022-12-07T06:09:04.275Z,965.7400
2022-12-07T06:10:06.460Z,965.7800
2022-12-07T06:11:08.798Z,965.7800
2022-12-07T06:12:11.055Z,965.7800
2022-12-07T06:13:11.175Z,965.7600
2022-12-07T06:14:13.518Z,965.7800
2022-12-07T06:15:15.712Z,965.7800
2022-12-07T06:16:18.064Z,965.7800
2022-12-07T06:17:20.314Z,965.8000
2022-12-07T06:18:22.581Z,965.8200
2022-12-07T06:19:25.024Z,965.8400
2022-12-07T06:20:27.150Z,965.8600
2022-12-07T06:21:29.413Z,965.8600
2022-12-07T06:22:31.675Z,965.8800
2022-12-07T06:23:39.441Z,965.8400
2022-12-07T06:24:40.702Z,965.8200
2022-12-07T06:25:42.844Z,965.7800
2022-12-07T06:26:45.142Z,965.7800
2022-12-07T06:27:47.485Z,965.8200
2022-12-07T06:28:49.800Z,965.8000
2022-12-07T06:29:49.918Z,965.8200
2022-12-07T06:30:52.158Z,965.8200
2022-12-07T06:31:54.552Z,965.8600
2022-12-07T06:32:56.766Z,965.8600
2022-12-07T06:33:59.108Z,965.8900
2022-12-07T06:35:01.570Z,965.8400
2022-12-07T06:36:03.662Z,965.8800
2022-12-07T06:37:03.818Z,965.8600
2022-12-07T06:38:06.071Z,965.8600
2022-12-07T06:39:08.371Z,965.8600
2022-12-07T06:40:10.657Z,965.8600
2022-12-07T06:41:12.882Z,965.8800
2022-12-07T06:42:15.131Z,965.8600
2022-12-07T06:43:17.412Z,965.8800
2022-12-07T06:44:19.694Z,965.8800
2022-12-07T06:45:19.865Z,965.8600
2022-12-07T06:46:22.241Z,965.8600
2022-12-07T06:47:40.253Z,965.8800
2022-12-07T06:48:26.609Z,965.8400
2022-12-07T06:49:28.895Z,965.8600
2022-12-07T06:50:31.239Z,965.8600
2022-12-07T06:51:33.364Z,965.8600
2022-12-07T06:52:35.602Z,965.8900
2022-12-07T06:53:37.869Z,965.8800
2022-12-07T06:54:37.987Z,965.8900
2022-12-07T06:55:40.263Z,965.8800
2022-12-07T06:56:42.481Z,965.8900
2022-12-07T06:57:44.721Z,965.8800
2022-12-07T06:58:47.046Z,965.8900
2022-12-07T06:59:49.391Z,965.8800
2022-12-07T07:00:49.842Z,965.8800
2022-12-07T07:01:51.861Z,965.8800
2022-12-07T07:02:54.367Z,965.8600
2022-12-07T07:03:56.435Z,965.8400
2022-12-07T07:04:58.779Z,965.8600
2022-12-07T07:05:59.086Z,965.8800
2022-12-07T07:07:01.336Z,965.8900
2022-12-07T07:09:06.039Z,965.8600
2022-12-07T07:10:08.327Z,965.8600
2022-12-07T07:11:10.625Z,965.8800
2022-12-07T07:12:12.925Z,965.8800
2022-12-07T07:13:13.109Z,965.8800
2022-12-07T07:14:15.448Z,965.8600
2022-12-07T07:15:17.794Z,965.8800
2022-12-07T07:16:20.367Z,965.8800
2022-12-07T07:17:22.458Z,965.8800
2022-12-07T07:18:22.658Z,965.8800
2022-12-07T07:19:24.916Z,965.8800
2022-12-07T07:20:27.223Z,965.8600
2022-12-07T07:21:29.558Z,965.8800
2022-12-07T07:22:31.783Z,965.8800
2022-12-07T07:23:34.046Z,965.8600
2022-12-07T07:24:36.316Z,965.8800
2022-12-07T07:25:38.595Z,965.8900
2022-12-07T07:26:38.890Z,965.9100
2022-12-07T07:27:41.054Z,965.8900
2022-12-07T07:28:43.372Z,965.9100
2022-12-07T07:29:45.681Z,965.9300
2022-12-07T07:30:48.083Z,965.9100
2022-12-07T07:31:48.208Z,965.9300
2022-12-07T07:32:50.460Z,965.9100
2022-12-07T07:33:52.776Z,965.9100
2022-12-07T07:34:55.060Z,965.9300
2022-12-07T07:35:57.363Z,965.9700
2022-12-07T07:36:59.797Z,965.9700
2022-12-07T07:37:59.826Z,965.9900
2022-12-07T07:39:02.137Z,965.9900
2022-12-07T07:40:04.740Z,965.9700
2022-12-07T07:41:06.687Z,965.9900
2022-12-07T07:42:08.972Z,965.9900
2022-12-07T07:43:11.211Z,965.9900
2022-12-07T07:44:13.496Z,965.9900
2022-12-07T07:45:13.658Z,965.9900
2022-12-07T07:46:16.028Z,965.9900
2022-12-07T07:47:18.480Z,965.9900
2022-12-07T07:48:20.619Z,966.0300
2022-12-07T07:49:22.988Z,966.0300
2022-12-07T07:50:25.287Z,966.0500
2022-12-07T07:51:25.472Z,966.0700
2022-12-07T07:52:27.793Z,966.0700
2022-12-07T07:53:30.143Z,966.0900
2022-12-07T07:54:32.480Z,966.0700
2022-12-07T07:55:34.816Z,966.0900
2022-12-07T07:56:37.116Z,966.1100
2022-12-07T07:57:37.333Z,966.0900
2022-12-07T07:58:39.650Z,966.0900
2022-12-07T07:59:41.998Z,966.0900
2022-12-07T08:00:44.310Z,966.0700
2022-12-07T08:01:46.744Z,966.0500
2022-12-07T08:03:47.128Z,966.0700
2022-12-07T08:04:49.227Z,966.0700
2022-12-07T08:05:51.326Z,966.0500
2022-12-07T08:06:51.441Z,966.0500
2022-12-07T08:07:53.779Z,966.0500
2022-12-07T08:08:56.038Z,966.0700
2022-12-07T08:09:58.305Z,966.0700
2022-12-07T08:11:00.620Z,966.0700
2022-12-07T08:12:02.896Z,966.0500
2022-12-07T08:13:05.173Z,966.0500
2022-12-07T08:14:05.516Z,966.0700
2022-12-07T08:15:07.657Z,966.0900
2022-12-07T08:16:10.020Z,966.0900
2022-12-07T08:17:12.277Z,966.1100
2022-12-07T08:18:14.583Z,966.1100
2022-12-07T08:19:17.124Z,966.1100
2022-12-07T08:20:17.143Z,966.1100
2022-12-07T08:21:19.423Z,966.1300
2022-12-07T08:22:21.736Z,966.1500
2022-12-07T08:23:31.507Z,966.1500
2022-12-07T08:24:26.585Z,966.1900
2022-12-07T08:25:28.719Z,966.1500
2022-12-07T08:26:28.837Z,966.1700
2022-12-07T08:27:31.167Z,966.1500
2022-12-07T08:28:33.425Z,966.1500
2022-12-07T08:29:35.728Z,966.1500
2022-12-07T08:30:38.151Z,966.1900
2022-12-07T08:31:40.404Z,966.1900
2022-12-07T08:32:42.570Z,966.1900
2022-12-07T08:33:42.681Z,966.2300
2022-12-07T08:34:45.164Z,966.2300
2022-12-07T08:35:47.326Z,966.2300
2022-12-07T08:36:49.630Z,966.2100
2022-12-07T08:37:51.963Z,966.2300
2022-12-07T08:39:29.322Z,966.2100
2022-12-07T08:39:54.669Z,966.2100
2022-12-07T08:40:56.837Z,966.2100
2022-12-07T08:41:59.202Z,966.2100
2022-12-07T08:43:01.566Z,966.2100
2022-12-07T08:44:01.766Z,966.2300
2022-12-07T08:45:04.134Z,966.2500
2022-12-07T08:46:06.441Z,966.2300
2022-12-07T08:47:08.749Z,966.2300
2022-12-07T08:48:11.117Z,966.2100
2022-12-07T08:49:11.308Z,966.2100
2022-12-07T08:50:13.716Z,966.1900
2022-12-07T08:51:16.095Z,966.2100
2022-12-07T08:52:18.433Z,966.2300
2022-12-07T08:53:20.744Z,966.2100
2022-12-07T08:54:20.898Z,966.2300
2022-12-07T08:55:23.438Z,966.2100
2022-12-07T08:56:25.579Z,966.2300
2022-12-07T08:57:27.919Z,966.2100
2022-12-07T08:58:30.275Z,966.1900
2022-12-07T08:59:30.462Z,966.2100
2022-12-07T09:00:32.775Z,966.2100
2022-12-07T09:01:35.117Z,966.2100
2022-12-07T09:02:37.390Z,966.1900
2022-12-07T09:03:39.729Z,966.1900
2022-12-07T09:04:41.963Z,966.2100
2022-12-07T09:05:44.335Z,966.1900
2022-12-07T09:06:46.594Z,966.2100
2022-12-07T09:07:46.562Z,966.2100
2022-12-07T09:08:48.787Z,966.2100
2022-12-07T09:09:51.049Z,966.2300
2022-12-07T09:10:53.632Z,966.2300
2022-12-07T09:11:55.703Z,966.2300
2022-12-07T09:12:58.040Z,966.2300
2022-12-07T09:13:58.201Z,966.2300
2022-12-07T09:15:00.465Z,966.2500
2022-12-07T09:16:03.115Z,966.2500
2022-12-07T09:17:05.035Z,966.2500
2022-12-07T09:18:07.299Z,966.2700
2022-12-07T09:19:09.549Z,966.2900
2022-12-07T09:20:11.852Z,966.2900
2022-12-07T09:21:12.055Z,966.3100
2022-12-07T09:22:14.352Z,966.3100
2022-12-07T09:23:16.661Z,966.3100
2022-12-07T09:24:18.948Z,966.3300
2022-12-07T09:25:21.285Z,966.3300
2022-12-07T09:26:23.663Z,966.3300
2022-12-07T09:27:23.744Z,966.3600
2022-12-07T09:28:26.032Z,966.3800
2022-12-07T09:29:28.337Z,966.4000
2022-12-07T09:30:30.658Z,966.3800
2022-12-07T09:31:33.195Z,966.3800
2022-12-07T09:32:35.452Z,966.4000
2022-12-07T09:33:35.590Z,966.3800
2022-12-07T09:34:38.062Z,966.3800
2022-12-07T09:35:40.336Z,966.3800
2022-12-07T09:36:42.668Z,966.3800
2022-12-07T09:37:45.014Z,966.3600
2022-12-07T09:38:45.207Z,966.3500
2022-12-07T09:39:50.384Z,966.3800
2022-12-07T09:40:49.914Z,966.3600
2022-12-07T09:41:52.305Z,966.3800
2022-12-07T09:42:52.580Z,966.3600
2022-12-07T09:43:54.847Z,966.3600
2022-12-07T09:44:57.237Z,966.3500
2022-12-07T09:45:59.680Z,966.3600
2022-12-07T09:47:02.177Z,966.3600
2022-12-07T09:48:02.229Z,966.3600
2022-12-07T09:49:04.624Z,966.3600
2022-12-07T09:50:06.956Z,966.3600
2022-12-07T09:51:09.307Z,966.3600
2022-12-07T09:52:09.493Z,966.3500
2022-12-07T09:53:11.841Z,966.3600
2022-12-07T09:54:14.132Z,966.3500
2022-12-07T09:55:16.414Z,966.3300
2022-12-07T09:56:18.747Z,966.3100
2022-12-07T09:57:21.247Z,966.3100
2022-12-07T09:58:21.222Z,966.3100
2022-12-07T09:59:23.533Z,966.2700
2022-12-07T10:00:25.858Z,966.2700
2022-12-07T10:01:28.271Z,966.2700
2022-12-07T10:02:30.620Z,966.2500
2022-12-07T10:03:30.807Z,966.2500
2022-12-07T10:04:33.220Z,966.2500
2022-12-07T10:05:35.586Z,966.2300
2022-12-07T10:06:37.889Z,966.1900
2022-12-07T10:07:40.315Z,966.1900
2022-12-07T10:08:40.520Z,966.1500
2022-12-07T10:09:42.767Z,966.1300
2022-12-07T10:10:45.065Z,966.1300
2022-12-07T10:11:47.356Z,966.0700
2022-12-07T10:12:49.677Z,966.0700
2022-12-07T10:13:51.965Z,966.0300
2022-12-07T10:15:06.903Z,966.0300
2022-12-07T10:15:54.595Z,965.9900
2022-12-07T10:16:56.877Z,965.9900
2022-12-07T10:17:59.240Z,965.9900
2022-12-07T10:19:01.513Z,965.9900
2022-12-07T10:20:01.655Z,965.9700
2022-12-07T10:21:03.937Z,965.9500
2022-12-07T10:22:06.201Z,965.9700
2022-12-07T10:23:08.634Z,965.9700
2022-12-07T10:24:10.829Z,965.9500
2022-12-07T10:25:13.094Z,965.9300
2022-12-07T10:26:13.225Z,965.9300
2022-12-07T10:27:15.534Z,965.9300
2022-12-07T10:28:17.887Z,965.9300
2022-12-07T10:29:20.167Z,965.8900
2022-12-07T10:30:22.486Z,965.8900
2022-12-07T10:31:24.987Z,965.8900
2022-12-07T10:32:25.011Z,965.8900
2022-12-07T10:33:27.491Z,965.8600
2022-12-07T10:34:29.624Z,965.8600
2022-12-07T10:35:31.978Z,965.8600
2022-12-07T10:36:34.306Z,965.8600
2022-12-07T10:37:36.604Z,965.8200
2022-12-07T10:38:36.821Z,965.8200
2022-12-07T10:39:39.188Z,965.8200
2022-12-07T10:40:46.323Z,965.8400
2022-12-07T10:41:43.828Z,965.8200
2022-12-07T10:42:46.160Z,965.8600
2022-12-07T10:43:46.397Z,965.8400
2022-12-07T10:44:48.787Z,965.8400
2022-12-07T10:46:03.401Z,965.8400
2022-12-07T10:46:53.440Z,965.8200
2022-12-07T10:47:55.722Z,965.8200
2022-12-07T10:48:56.053Z,965.7800
2022-12-07T10:49:58.283Z,965.7800
2022-12-07T10:51:00.605Z,965.7400
2022-12-07T10:52:02.933Z,965.7400
2022-12-07T10:53:05.269Z,965.7200
2022-12-07T10:54:07.555Z,965.7200
2022-12-07T10:55:07.731Z,965.6800
2022-12-07T10:56:10.002Z,965.6400
2022-12-07T10:57:12.314Z,965.6600
2022-12-07T10:58:14.596Z,965.6600
2022-12-07T10:59:16.968Z,965.6200
2022-12-07T11:00:17.155Z,965.6000
2022-12-07T11:01:19.533Z,965.6000
2022-12-07T11:02:22.896Z,965.5800
2022-12-07T11:03:24.166Z,965.5600
2022-12-07T11:04:26.549Z,965.5400
2022-12-07T11:05:26.666Z,965.5200
2022-12-07T11:06:28.977Z,965.5400
2022-12-07T11:07:31.312Z,965.5200
2022-12-07T11:08:33.710Z,965.5000
2022-12-07T11:10:06.953Z,965.5200
2022-12-07T11:10:38.238Z,965.5200
2022-12-07T11:11:40.535Z,965.5000
2022-12-07T11:12:40.707Z,965.4400
2022-12-07T11:13:43.039Z,965.5200
2022-12-07T11:14:45.402Z,965.4600
2022-12-07T11:15:47.703Z,965.4600
2022-12-07T11:16:50.154Z,965.4400
2022-12-07T11:18:31.098Z,965.4400
2022-12-07T11:19:31.130Z,965.4200
2022-12-07T11:20:33.357Z,965.4200
2022-12-07T11:21:35.601Z,965.4100
2022-12-07T11:22:37.888Z,965.4100
2022-12-07T11:23:40.181Z,965.3900
2022-12-07T11:24:42.457Z,965.3900
2022-12-07T11:25:44.733Z,965.3700
2022-12-07T11:26:46.956Z,965.3700
2022-12-07T11:27:49.252Z,965.3700
2022-12-07T11:28:49.426Z,965.3500
2022-12-07T11:29:51.765Z,965.3100
2022-12-07T11:30:54.105Z,965.2900
2022-12-07T11:31:56.483Z,965.3300
2022-12-07T11:32:58.771Z,965.3100
2022-12-07T11:33:58.961Z,965.2900
2022-12-07T11:35:01.249Z,965.2900
2022-12-07T11:36:03.578Z,965.2700
2022-12-07T11:37:05.777Z,965.2300
2022-12-07T11:38:08.043Z,965.2300
2022-12-07T11:39:11.124Z,965.1900
2022-12-07T11:40:12.541Z,965.1900
2022-12-07T11:41:14.983Z,965.1700
2022-12-07T11:42:14.992Z,965.1700
2022-12-07T11:43:17.328Z,965.1900
2022-12-07T11:44:24.188Z,965.1700
2022-12-07T11:45:22.038Z,965.1700
2022-12-07T11:46:24.603Z,965.1700
2022-12-07T11:47:24.616Z,965.1500
2022-12-07T11:48:26.978Z,965.1300
2022-12-07T11:49:29.294Z,965.1700
2022-12-07T11:50:31.648Z,965.1700
2022-12-07T11:51:34.283Z,965.1500
2022-12-07T11:51:40.481Z,965.1500
2022-12-07T11:52:42.812Z,965.1300
2022-12-07T11:53:45.154Z,965.1300
2022-12-07T11:54:47.504Z,965.1100
2022-12-07T11:55:49.843Z,965.1100
2022-12-07T11:56:50.034Z,965.0900
2022-12-07T11:57:52.259Z,965.0500
2022-12-07T11:58:54.562Z,965.0500
2022-12-07T11:59:56.884Z,965.0300
2022-12-07T12:00:59.188Z,965.0500
2022-12-07T12:02:03.321Z,965.0500
2022-12-07T12:03:01.749Z,965.0300
2022-12-07T12:04:03.970Z,965.0300
2022-12-07T12:05:06.283Z,965.0300
2022-12-07T12:06:08.557Z,965.0200
2022-12-07T12:10:15.724Z,965.0000
2022-12-07T12:11:18.075Z,965.0000
2022-12-07T12:14:40.777Z,964.9800
2022-12-07T12:15:25.339Z,964.9600
2022-12-07T12:16:27.766Z,964.9200